Terminal Aerodrome Forecast
Issued by NWS Upton, NY

Home | Current Version | Previous Version | Text Only | Print | Product List | Glossary On
Versions: 1 2 3 4 5 6 7 8 9 10 11 12 13 14 15 16 17 18 19 20 21 22 23 24 25 26 27 28 29 30 31 32
081
FTUS41 KOKX 281212 AAA
TAFEWR
TAF AMD
KEWR 281212Z 2812/2918 09005KT 5SM BR BKN006
      TEMPO 2813/2814 6SM HZ BKN008
     FM281400 13006KT P6SM SCT010 SCT070 BKN200
     FM290100 11007KT P6SM SCT070 BKN100
     FM290300 10006KT P6SM VCSH SCT015 OVC025
     FM290500 09008KT 5SM -RA OVC015
     FM291100 09008KT 2SM -SHRA OVC010
     FM291300 08006KT 1 1/2SM -SHRA VCTS OVC010CB
     FM291500 05005KT 4SM -SHRA VCTS OVC010CB=

USA.gov is the U.S. government's official web portal to all federal, state and local government web resources and services.